SHT76KM EGJB-EGLL
Flight info
| Callsign | SHT76KM |
|---|---|
| Flight time | N/A |
| Altitude | 23000 |
| Route | ORIST L982 ROXOG |
| Aircraft | A319/M-SDE3FGHIRWY/LB1 |
Departure
| Time | 2026-04-20 18:02 |
|---|---|
| Airport | Guernsey Airport (EGJB) |
Arrival
| Time | N/A |
|---|---|
| Airport | London Heathrow Airport (EGLL) |
| Time | Latitude | Longitude | Altitude | Speed | Heading |
|---|---|---|---|---|---|
| 2026-04-20 17:41 | 49.43255 | -2.59684 | 328 ft | 0 kts | 177° |
| 2026-04-20 17:55 | 49.43268 | -2.59685 | 325 ft | 3 kts | 176° |
| 2026-04-20 17:55 | 49.43289 | -2.59687 | 328 ft | 3 kts | 177° |
| 2026-04-20 17:55 | 49.43309 | -2.59688 | 328 ft | 3 kts | 182° |
| 2026-04-20 17:56 | 49.43329 | -2.59685 | 328 ft | 3 kts | 199° |
| 2026-04-20 17:56 | 49.43344 | -2.59673 | 324 ft | 3 kts | 216° |
| 2026-04-20 17:56 | 49.43354 | -2.59661 | 324 ft | 3 kts | 238° |
| 2026-04-20 17:56 | 49.43361 | -2.59634 | 327 ft | 3 kts | 264° |
| 2026-04-20 17:57 | 49.43362 | -2.59616 | 327 ft | 0 kts | 267° |
| 2026-04-20 17:58 | 49.43362 | -2.59619 | 327 ft | 2 kts | 267° |
| 2026-04-20 17:59 | 49.43355 | -2.59718 | 327 ft | 13 kts | 258° |
| 2026-04-20 17:59 | 49.43343 | -2.59892 | 321 ft | 21 kts | 266° |
| 2026-04-20 17:59 | 49.43338 | -2.60110 | 306 ft | 21 kts | 269° |
| 2026-04-20 17:59 | 49.43331 | -2.60382 | 293 ft | 29 kts | 268° |
| 2026-04-20 18:00 | 49.43334 | -2.60664 | 296 ft | 26 kts | 278° |
| 2026-04-20 18:00 | 49.43361 | -2.60901 | 306 ft | 19 kts | 279° |
| 2026-04-20 18:00 | 49.43361 | -2.61088 | 311 ft | 18 kts | 269° |
| 2026-04-20 18:00 | 49.43381 | -2.61280 | 314 ft | 17 kts | 316° |
| 2026-04-20 18:01 | 49.43459 | -2.61319 | 315 ft | 12 kts | 50° |
| 2026-04-20 18:01 | 49.43467 | -2.61265 | 315 ft | 0 kts | 88° |
| 2026-04-20 18:01 | 49.43470 | -2.61144 | 314 ft | 46 kts | 88° |
| 2026-04-20 18:02 | 49.43498 | -2.60209 | 320 ft | 124 kts | 85° |
| 2026-04-20 18:02 | 49.43527 | -2.58825 | 1006 ft | 129 kts | 85° |
| 2026-04-20 18:02 | 49.43568 | -2.57437 | 1776 ft | 135 kts | 85° |
| 2026-04-20 18:02 | 49.43616 | -2.55885 | 2203 ft | 157 kts | 86° |
| 2026-04-20 18:03 | 49.43667 | -2.54071 | 2700 ft | 182 kts | 87° |
| 2026-04-20 18:03 | 49.43721 | -2.52065 | 3546 ft | 193 kts | 88° |
| 2026-04-20 18:03 | 49.44051 | -2.50005 | 3940 ft | 205 kts | 59° |
| 2026-04-20 18:03 | 49.45166 | -2.48604 | 4831 ft | 214 kts | 25° |
| 2026-04-20 18:04 | 49.46639 | -2.48139 | 5847 ft | 218 kts | 12° |
| 2026-04-20 18:04 | 49.48136 | -2.47649 | 6804 ft | 223 kts | 14° |
| 2026-04-20 18:04 | 49.49725 | -2.47012 | 7358 ft | 248 kts | 15° |
| 2026-04-20 18:04 | 49.51447 | -2.46297 | 7996 ft | 268 kts | 15° |
| 2026-04-20 18:05 | 49.55160 | -2.44789 | 9918 ft | 282 kts | 14° |
| 2026-04-20 18:05 | 49.57078 | -2.44033 | 10841 ft | 287 kts | 13° |
| 2026-04-20 18:05 | 49.59031 | -2.43277 | 11802 ft | 290 kts | 13° |
| 2026-04-20 18:06 | 49.60978 | -2.42530 | 12702 ft | 294 kts | 11° |
| 2026-04-20 18:06 | 49.62977 | -2.41761 | 13631 ft | 298 kts | 11° |
| 2026-04-20 18:06 | 49.65009 | -2.40982 | 14495 ft | 301 kts | 11° |
| 2026-04-20 18:06 | 49.67057 | -2.40200 | 15272 ft | 306 kts | 11° |
| 2026-04-20 18:07 | 49.69103 | -2.39140 | 16058 ft | 315 kts | 22° |
| 2026-04-20 18:07 | 49.70997 | -2.37326 | 16653 ft | 332 kts | 35° |
| 2026-04-20 18:07 | 49.72677 | -2.34675 | 16844 ft | 359 kts | 47° |
| 2026-04-20 18:07 | 49.74334 | -2.31633 | 16977 ft | 381 kts | 47° |
| 2026-04-20 18:08 | 49.76091 | -2.28413 | 17117 ft | 401 kts | 46° |
| 2026-04-20 18:08 | 49.77902 | -2.25102 | 17411 ft | 415 kts | 47° |
| 2026-04-20 18:08 | 49.79783 | -2.21668 | 17949 ft | 421 kts | 46° |
| 2026-04-20 18:08 | 49.81691 | -2.18192 | 18526 ft | 426 kts | 47° |
| 2026-04-20 18:09 | 49.83616 | -2.14678 | 19044 ft | 430 kts | 46° |
| 2026-04-20 18:09 | 49.85565 | -2.11103 | 19524 ft | 435 kts | 46° |
| 2026-04-20 18:09 | 49.87524 | -2.07502 | 20018 ft | 439 kts | 46° |
| 2026-04-20 18:09 | 49.89508 | -2.03855 | 20496 ft | 444 kts | 46° |
| 2026-04-20 18:10 | 49.91512 | -2.00170 | 20948 ft | 448 kts | 46° |
| 2026-04-20 18:10 | 49.93534 | -1.96457 | 21398 ft | 453 kts | 46° |
| 2026-04-20 18:10 | 49.95574 | -1.92702 | 21846 ft | 457 kts | 45° |